sensor_id;sensor_type;location;lat;lon;timestamp;pressure;altitude;pressure_sealevel;temperature;humidity
18569;BME280;14780;48.316;-1.050;2023-04-02T00:01:15;99123.44;;;23.86;38.89
18569;BME280;14780;48.316;-1.050;2023-04-02T00:07:17;99130.81;;;23.85;38.89
18569;BME280;14780;48.316;-1.050;2023-04-02T00:09:53;99132.97;;;23.83;38.87
18569;BME280;14780;48.316;-1.050;2023-04-02T00:12:38;99134.63;;;23.84;38.93
18569;BME280;14780;48.316;-1.050;2023-04-02T00:15:22;99131.63;;;23.81;38.99
18569;BME280;14780;48.316;-1.050;2023-04-02T00:18:13;99129.69;;;23.81;38.96
18569;BME280;14780;48.316;-1.050;2023-04-02T00:21:23;99142.25;;;23.82;38.89
18569;BME280;14780;48.316;-1.050;2023-04-02T00:24:20;99136.53;;;23.84;38.96
18569;BME280;14780;48.316;-1.050;2023-04-02T00:27:09;99133.53;;;23.80;38.94
18569;BME280;14780;48.316;-1.050;2023-04-02T00:29:56;99146.91;;;23.77;38.85
18569;BME280;14780;48.316;-1.050;2023-04-02T00:32:41;99146.63;;;23.78;38.94
18569;BME280;14780;48.316;-1.050;2023-04-02T00:35:28;99149.38;;;23.83;38.77
18569;BME280;14780;48.316;-1.050;2023-04-02T00:38:26;99154.34;;;23.86;38.73
18569;BME280;14780;48.316;-1.050;2023-04-02T00:41:19;99157.06;;;23.86;38.76
18569;BME280;14780;48.316;-1.050;2023-04-02T00:44:06;99153.25;;;23.87;38.78
18569;BME280;14780;48.316;-1.050;2023-04-02T00:46:55;99165.25;;;23.86;38.81
18569;BME280;14780;48.316;-1.050;2023-04-02T00:49:41;99158.97;;;23.86;38.78
18569;BME280;14780;48.316;-1.050;2023-04-02T00:52:29;99165.25;;;23.86;38.82
18569;BME280;14780;48.316;-1.050;2023-04-02T00:55:26;99157.59;;;23.88;38.80
18569;BME280;14780;48.316;-1.050;2023-04-02T00:58:26;99157.88;;;23.87;38.75
18569;BME280;14780;48.316;-1.050;2023-04-02T01:01:22;99164.69;;;23.84;38.68
18569;BME280;14780;48.316;-1.050;2023-04-02T01:04:30;99165.25;;;23.86;38.73
18569;BME280;14780;48.316;-1.050;2023-04-02T01:07:18;99165.75;;;23.83;38.84
18569;BME280;14780;48.316;-1.050;2023-04-02T01:13:43;99174.53;;;23.85;38.76
18569;BME280;14780;48.316;-1.050;2023-04-02T01:31:47;99187.06;;;23.76;38.79
18569;BME280;14780;48.316;-1.050;2023-04-02T01:34:34;99186.00;;;23.77;38.82
18569;BME280;14780;48.316;-1.050;2023-04-02T01:40:46;99192.78;;;23.80;38.69
18569;BME280;14780;48.316;-1.050;2023-04-02T01:44:51;99191.44;;;23.82;38.73
18569;BME280;14780;48.316;-1.050;2023-04-02T01:47:10;99199.94;;;23.81;38.81
18569;BME280;14780;48.316;-1.050;2023-04-02T01:52:58;99188.16;;;23.80;38.79
18569;BME280;14780;48.316;-1.050;2023-04-02T01:55:47;99196.38;;;23.80;38.73
18569;BME280;14780;48.316;-1.050;2023-04-02T01:58:32;99199.38;;;23.84;38.59
18569;BME280;14780;48.316;-1.050;2023-04-02T02:01:23;99193.09;;;23.83;38.71
18569;BME280;14780;48.316;-1.050;2023-04-02T02:04:14;99192.28;;;23.83;38.74
18569;BME280;14780;48.316;-1.050;2023-04-02T02:07:00;99204.00;;;23.83;38.65
18569;BME280;14780;48.316;-1.050;2023-04-02T02:09:47;99202.94;;;23.84;38.52
18569;BME280;14780;48.316;-1.050;2023-04-02T02:12:32;99206.25;;;23.86;38.52
18569;BME280;14780;48.316;-1.050;2023-04-02T02:15:22;99201.84;;;23.85;38.65
18569;BME280;14780;48.316;-1.050;2023-04-02T02:18:10;99209.78;;;23.87;38.45
18569;BME280;14780;48.316;-1.050;2023-04-02T02:20:57;99221.28;;;23.89;38.60
18569;BME280;14780;48.316;-1.050;2023-04-02T02:23:43;99222.66;;;23.86;38.38
18569;BME280;14780;48.316;-1.050;2023-04-02T02:26:29;99227.03;;;23.87;38.42
18569;BME280;14780;48.316;-1.050;2023-04-02T02:29:19;99219.09;;;23.86;38.58
18569;BME280;14780;48.316;-1.050;2023-04-02T02:32:08;99223.19;;;23.88;38.53
18569;BME280;14780;48.316;-1.050;2023-04-02T02:35:11;99235.75;;;23.89;38.43
18569;BME280;14780;48.316;-1.050;2023-04-02T02:44:26;99234.13;;;23.88;38.45
18569;BME280;14780;48.316;-1.050;2023-04-02T02:47:27;99245.06;;;23.88;38.43
18569;BME280;14780;48.316;-1.050;2023-04-02T02:50:26;99235.75;;;23.89;38.39
18569;BME280;14780;48.316;-1.050;2023-04-02T02:53:23;99243.41;;;23.87;38.53
18569;BME280;14780;48.316;-1.050;2023-04-02T02:56:08;99243.09;;;23.84;38.42
18569;BME280;14780;48.316;-1.050;2023-04-02T02:58:54;99238.47;;;23.84;38.41
18569;BME280;14780;48.316;-1.050;2023-04-02T03:01:39;99239.53;;;23.83;38.40
18569;BME280;14780;48.316;-1.050;2023-04-02T03:04:25;99242.81;;;23.80;38.43
18569;BME280;14780;48.316;-1.050;2023-04-02T03:07:10;99248.28;;;23.80;38.62
18569;BME280;14780;48.316;-1.050;2023-04-02T03:10:04;99247.72;;;23.83;38.54
18569;BME280;14780;48.316;-1.050;2023-04-02T03:13:17;99252.13;;;23.84;38.58
18569;BME280;14780;48.316;-1.050;2023-04-02T03:16:35;99261.13;;;23.85;38.48
18569;BME280;14780;48.316;-1.050;2023-04-02T03:19:38;99260.84;;;23.81;38.54
18569;BME280;14780;48.316;-1.050;2023-04-02T03:22:37;99260.56;;;23.78;38.49
18569;BME280;14780;48.316;-1.050;2023-04-02T03:25:34;99267.66;;;23.79;38.45
18569;BME280;14780;48.316;-1.050;2023-04-02T03:28:26;99284.06;;;23.79;38.56
18569;BME280;14780;48.316;-1.050;2023-04-02T03:34:11;99276.16;;;23.77;38.44
18569;BME280;14780;48.316;-1.050;2023-04-02T03:37:17;99283.84;;;23.85;38.30
18569;BME280;14780;48.316;-1.050;2023-04-02T03:40:15;99306.53;;;23.86;38.32
18569;BME280;14780;48.316;-1.050;2023-04-02T03:43:14;99304.09;;;23.89;38.25
18569;BME280;14780;48.316;-1.050;2023-04-02T03:46:30;99302.19;;;23.90;38.21
18569;BME280;14780;48.316;-1.050;2023-04-02T03:49:18;99305.44;;;23.87;38.35
18569;BME280;14780;48.316;-1.050;2023-04-02T03:52:12;99315.84;;;23.90;38.22
18569;BME280;14780;48.316;-1.050;2023-04-02T03:55:00;99314.47;;;23.87;38.30
18569;BME280;14780;48.316;-1.050;2023-04-02T04:00:45;99309.00;;;23.87;38.37
18569;BME280;14780;48.316;-1.050;2023-04-02T04:06:29;99309.00;;;23.87;38.24
18569;BME280;14780;48.316;-1.050;2023-04-02T04:09:34;99310.63;;;23.88;38.31
18569;BME280;14780;48.316;-1.050;2023-04-02T04:15:20;99322.09;;;23.85;38.24
18569;BME280;14780;48.316;-1.050;2023-04-02T04:18:25;99316.94;;;23.89;38.27
18569;BME280;14780;48.316;-1.050;2023-04-02T04:21:22;99319.09;;;23.87;38.30
18569;BME280;14780;48.316;-1.050;2023-04-02T04:24:23;99333.59;;;23.87;38.19
18569;BME280;14780;48.316;-1.050;2023-04-02T04:30:16;99338.81;;;23.89;38.28
18569;BME280;14780;48.316;-1.050;2023-04-02T04:33:16;99339.88;;;23.88;38.25
18569;BME280;14780;48.316;-1.050;2023-04-02T04:36:20;99345.91;;;23.90;38.17
18569;BME280;14780;48.316;-1.050;2023-04-02T04:39:16;99350.00;;;23.87;38.25
18569;BME280;14780;48.316;-1.050;2023-04-02T04:42:06;99356.56;;;23.86;38.18
18569;BME280;14780;48.316;-1.050;2023-04-02T04:48:26;99368.53;;;23.85;38.24
18569;BME280;14780;48.316;-1.050;2023-04-02T04:52:20;99362.00;;;23.86;38.13
18569;BME280;14780;48.316;-1.050;2023-04-02T04:54:37;99373.16;;;23.85;38.15
18569;BME280;14780;48.316;-1.050;2023-04-02T04:57:37;99370.75;;;23.88;38.16
18569;BME280;14780;48.316;-1.050;2023-04-02T05:06:59;99382.19;;;23.85;38.12
18569;BME280;14780;48.316;-1.050;2023-04-02T05:12:53;99387.66;;;23.85;38.20
18569;BME280;14780;48.316;-1.050;2023-04-02T05:19:02;99393.38;;;23.84;38.13
18569;BME280;14780;48.316;-1.050;2023-04-02T05:24:57;99389.81;;;23.83;38.11
18569;BME280;14780;48.316;-1.050;2023-04-02T05:30:55;99406.81;;;23.85;38.17
18569;BME280;14780;48.316;-1.050;2023-04-02T05:33:47;99412.78;;;23.82;38.09
18569;BME280;14780;48.316;-1.050;2023-04-02T05:36:32;99401.28;;;23.80;38.12
18569;BME280;14780;48.316;-1.050;2023-04-02T05:39:22;99412.22;;;23.80;38.05
18569;BME280;14780;48.316;-1.050;2023-04-02T05:42:22;99414.41;;;23.83;38.14
18569;BME280;14780;48.316;-1.050;2023-04-02T05:45:33;99411.69;;;23.83;38.15
18569;BME280;14780;48.316;-1.050;2023-04-02T05:48:29;99424.28;;;23.84;38.00
18569;BME280;14780;48.316;-1.050;2023-04-02T05:51:20;99440.38;;;23.81;38.06
18569;BME280;14780;48.316;-1.050;2023-04-02T05:54:11;99440.63;;;23.79;38.08
18569;BME280;14780;48.316;-1.050;2023-04-02T05:57:04;99447.19;;;23.78;38.06
18569;BME280;14780;48.316;-1.050;2023-04-02T05:59:56;99452.38;;;23.80;38.09
18569;BME280;14780;48.316;-1.050;2023-04-02T06:03:03;99465.78;;;23.81;38.03
18569;BME280;14780;48.316;-1.050;2023-04-02T06:05:52;99468.22;;;23.78;38.04
18569;BME280;14780;48.316;-1.050;2023-04-02T06:08:43;99463.59;;;23.78;37.96
18569;BME280;14780;48.316;-1.050;2023-04-02T06:11:39;99475.31;;;23.79;38.02
18569;BME280;14780;48.316;-1.050;2023-04-02T06:14:25;99476.41;;;23.78;38.05
18569;BME280;14780;48.316;-1.050;2023-04-02T06:17:14;99481.88;;;23.78;38.13
18569;BME280;14780;48.316;-1.050;2023-04-02T06:20:01;99490.31;;;23.76;38.03
18569;BME280;14780;48.316;-1.050;2023-04-02T06:25:52;99488.13;;;23.73;38.08
18569;BME280;14780;48.316;-1.050;2023-04-02T06:31:59;99495.19;;;23.69;38.15
18569;BME280;14780;48.316;-1.050;2023-04-02T06:34:44;99506.13;;;23.69;38.07
18569;BME280;14780;48.316;-1.050;2023-04-02T06:37:35;99501.50;;;23.70;38.26
18569;BME280;14780;48.316;-1.050;2023-04-02T06:43:30;99506.16;;;23.74;38.20
18569;BME280;14780;48.316;-1.050;2023-04-02T06:52:32;99522.00;;;23.72;38.25
18569;BME280;14780;48.316;-1.050;2023-04-02T06:55:46;99516.84;;;23.76;38.31
18569;BME280;14780;48.316;-1.050;2023-04-02T06:58:32;99524.22;;;23.75;38.24
18569;BME280;14780;48.316;-1.050;2023-04-02T07:01:23;99531.59;;;23.75;38.22
18569;BME280;14780;48.316;-1.050;2023-04-02T07:04:10;99527.25;;;23.79;38.25
18569;BME280;14780;48.316;-1.050;2023-04-02T07:06:55;99540.41;;;23.82;38.27
18569;BME280;14780;48.316;-1.050;2023-04-02T07:09:40;99545.88;;;23.82;38.31
18569;BME280;14780;48.316;-1.050;2023-04-02T07:12:26;99546.16;;;23.85;38.22
18569;BME280;14780;48.316;-1.050;2023-04-02T07:15:15;99559.59;;;23.87;38.30
18569;BME280;14780;48.316;-1.050;2023-04-02T07:18:00;99565.88;;;23.87;38.37
18569;BME280;14780;48.316;-1.050;2023-04-02T07:20:45;99569.72;;;23.86;38.39
18569;BME280;14780;48.316;-1.050;2023-04-02T07:23:30;99578.97;;;23.85;38.25
18569;BME280;14780;48.316;-1.050;2023-04-02T07:26:18;99576.81;;;23.87;38.33
18569;BME280;14780;48.316;-1.050;2023-04-02T07:29:06;99574.34;;;23.86;38.36
18569;BME280;14780;48.316;-1.050;2023-04-02T07:31:51;99567.53;;;23.88;38.21
18569;BME280;14780;48.316;-1.050;2023-04-02T07:34:38;99583.38;;;23.86;38.29
18569;BME280;14780;48.316;-1.050;2023-04-02T07:37:23;99575.97;;;23.87;38.33
18569;BME280;14780;48.316;-1.050;2023-04-02T07:40:17;99582.53;;;23.86;38.35
18569;BME280;14780;48.316;-1.050;2023-04-02T07:43:02;99589.91;;;23.85;38.32
18569;BME280;14780;48.316;-1.050;2023-04-02T07:45:49;99590.72;;;23.86;38.32
18569;BME280;14780;48.316;-1.050;2023-04-02T07:48:34;99591.56;;;23.86;38.38
18569;BME280;14780;48.316;-1.050;2023-04-02T07:51:24;99596.50;;;23.89;38.27
18569;BME280;14780;48.316;-1.050;2023-04-02T07:54:09;99598.44;;;23.89;38.20
18569;BME280;14780;48.316;-1.050;2023-04-02T07:56:54;99601.97;;;23.89;38.26
18569;BME280;14780;48.316;-1.050;2023-04-02T07:59:39;99604.19;;;23.92;38.41
18569;BME280;14780;48.316;-1.050;2023-04-02T08:02:24;99606.16;;;23.97;38.21
18569;BME280;14780;48.316;-1.050;2023-04-02T08:05:09;99608.03;;;23.96;38.35
18569;BME280;14780;48.316;-1.050;2023-04-02T08:07:55;99606.16;;;24.02;38.48
18569;BME280;14780;48.316;-1.050;2023-04-02T08:10:40;99606.47;;;24.05;38.53
18569;BME280;14780;48.316;-1.050;2023-04-02T08:13:25;99600.75;;;24.07;38.36
18569;BME280;14780;48.316;-1.050;2023-04-02T08:16:10;99605.13;;;24.08;38.66
18569;BME280;14780;48.316;-1.050;2023-04-02T08:18:54;99607.63;;;24.09;38.67
18569;BME280;14780;48.316;-1.050;2023-04-02T08:21:39;99604.63;;;24.11;38.94
18569;BME280;14780;48.316;-1.050;2023-04-02T08:24:24;99617.22;;;24.12;38.99
18569;BME280;14780;48.316;-1.050;2023-04-02T08:27:13;99632.81;;;24.16;39.24
18569;BME280;14780;48.316;-1.050;2023-04-02T08:29:58;99626.81;;;24.19;39.24
18569;BME280;14780;48.316;-1.050;2023-04-02T08:32:43;99622.44;;;24.18;39.54
18569;BME280;14780;48.316;-1.050;2023-04-02T08:35:28;99638.03;;;24.18;39.40
18569;BME280;14780;48.316;-1.050;2023-04-02T08:38:20;99642.66;;;24.17;39.22
18569;BME280;14780;48.316;-1.050;2023-04-02T08:41:05;99649.47;;;24.15;39.33
18569;BME280;14780;48.316;-1.050;2023-04-02T08:47:07;99657.66;;;24.10;39.05
18569;BME280;14780;48.316;-1.050;2023-04-02T08:49:55;99663.63;;;24.07;39.11
18569;BME280;14780;48.316;-1.050;2023-04-02T08:52:41;99672.91;;;24.06;39.09
18569;BME280;14780;48.316;-1.050;2023-04-02T09:04:19;99684.16;;;24.09;39.26
18569;BME280;14780;48.316;-1.050;2023-04-02T09:07:04;99689.09;;;24.12;39.55
18569;BME280;14780;48.316;-1.050;2023-04-02T09:09:50;99689.69;;;24.14;39.62
18569;BME280;14780;48.316;-1.050;2023-04-02T09:12:35;99686.16;;;24.19;39.66
18569;BME280;14780;48.316;-1.050;2023-04-02T09:15:30;99692.50;;;24.24;39.97
18569;BME280;14780;48.316;-1.050;2023-04-02T09:18:19;99699.63;;;24.25;39.86
18569;BME280;14780;48.316;-1.050;2023-04-02T09:24:15;99705.13;;;24.30;39.87
18569;BME280;14780;48.316;-1.050;2023-04-02T09:26:59;99707.56;;;24.27;39.87
18569;BME280;14780;48.316;-1.050;2023-04-02T09:29:47;99717.66;;;24.26;39.73
18569;BME280;14780;48.316;-1.050;2023-04-02T09:35:55;99714.38;;;24.24;39.58
18569;BME280;14780;48.316;-1.050;2023-04-02T09:38:39;99716.28;;;24.24;39.47
18569;BME280;14780;48.316;-1.050;2023-04-02T09:41:27;99725.31;;;24.24;39.46
18569;BME280;14780;48.316;-1.050;2023-04-02T09:44:20;99724.78;;;24.27;39.37
18569;BME280;14780;48.316;-1.050;2023-04-02T09:47:22;99730.00;;;24.29;39.36
18569;BME280;14780;48.316;-1.050;2023-04-02T09:50:31;99726.47;;;24.33;39.44
18569;BME280;14780;48.316;-1.050;2023-04-02T09:53:37;99723.75;;;24.33;39.38
18569;BME280;14780;48.316;-1.050;2023-04-02T09:56:23;99732.25;;;24.32;39.41
18569;BME280;14780;48.316;-1.050;2023-04-02T09:59:15;99749.44;;;24.32;39.36
18569;BME280;14780;48.316;-1.050;2023-04-02T10:02:01;99752.50;;;24.36;39.34
18569;BME280;14780;48.316;-1.050;2023-04-02T10:04:49;99748.66;;;24.32;39.18
18569;BME280;14780;48.316;-1.050;2023-04-02T10:07:39;99754.91;;;24.32;39.33
18569;BME280;14780;48.316;-1.050;2023-04-02T10:10:32;99757.66;;;24.32;39.03
18569;BME280;14780;48.316;-1.050;2023-04-02T10:19:39;99758.22;;;24.34;38.93
18569;BME280;14780;48.316;-1.050;2023-04-02T10:22:28;99760.38;;;24.32;38.95
18569;BME280;14780;48.316;-1.050;2023-04-02T10:25:15;99755.75;;;24.33;38.89
18569;BME280;14780;48.316;-1.050;2023-04-02T10:28:07;99756.88;;;24.37;38.91
18569;BME280;14780;48.316;-1.050;2023-04-02T10:31:25;99751.72;;;24.40;39.21
18569;BME280;14780;48.316;-1.050;2023-04-02T10:34:20;99756.69;;;24.43;39.17
18569;BME280;14780;48.316;-1.050;2023-04-02T10:37:37;99753.41;;;24.46;39.29
18569;BME280;14780;48.316;-1.050;2023-04-02T10:53:10;99791.56;;;24.58;40.28
18569;BME280;14780;48.316;-1.050;2023-04-02T10:56:04;99792.72;;;24.62;41.33
18569;BME280;14780;48.316;-1.050;2023-04-02T10:59:20;99781.53;;;24.68;41.30
18569;BME280;14780;48.316;-1.050;2023-04-02T11:02:30;99783.78;;;24.76;40.89
18569;BME280;14780;48.316;-1.050;2023-04-02T11:05:27;99788.19;;;24.77;40.99
18569;BME280;14780;48.316;-1.050;2023-04-02T11:08:45;99793.09;;;24.75;41.29
18569;BME280;14780;48.316;-1.050;2023-04-02T11:11:37;99792.28;;;24.75;40.76
18569;BME280;14780;48.316;-1.050;2023-04-02T11:14:26;99797.47;;;24.71;40.81
18569;BME280;14780;48.316;-1.050;2023-04-02T11:17:12;99800.44;;;24.70;40.90
18569;BME280;14780;48.316;-1.050;2023-04-02T11:23:28;99818.25;;;24.72;41.30
18569;BME280;14780;48.316;-1.050;2023-04-02T11:26:35;99827.28;;;24.73;41.16
18569;BME280;14780;48.316;-1.050;2023-04-02T11:29:27;99826.97;;;24.69;41.12
18569;BME280;14780;48.316;-1.050;2023-04-02T11:41:08;99840.47;;;24.49;41.22
18569;BME280;14780;48.316;-1.050;2023-04-02T11:43:59;99835.72;;;24.45;41.40
18569;BME280;14780;48.316;-1.050;2023-04-02T11:46:44;99828.91;;;24.42;41.48
18569;BME280;14780;48.316;-1.050;2023-04-02T11:49:38;99836.03;;;24.48;41.36
18569;BME280;14780;48.316;-1.050;2023-04-02T11:52:31;99835.47;;;24.46;41.12
18569;BME280;14780;48.316;-1.050;2023-04-02T11:55:31;99857.38;;;24.46;41.12
18569;BME280;14780;48.316;-1.050;2023-04-02T11:58:34;99856.56;;;24.46;40.98
18569;BME280;14780;48.316;-1.050;2023-04-02T12:01:33;99859.78;;;24.43;40.96
18569;BME280;14780;48.316;-1.050;2023-04-02T12:07:34;99848.84;;;24.43;40.86
18569;BME280;14780;48.316;-1.050;2023-04-02T12:16:23;99845.25;;;24.37;40.83
18569;BME280;14780;48.316;-1.050;2023-04-02T12:19:09;99857.91;;;24.43;40.63
18569;BME280;14780;48.316;-1.050;2023-04-02T12:21:54;99859.91;;;24.53;40.29
18569;BME280;14780;48.316;-1.050;2023-04-02T12:24:40;99859.91;;;24.53;40.25
18569;BME280;14780;48.316;-1.050;2023-04-02T12:27:27;99856.91;;;24.54;40.24
18569;BME280;14780;48.316;-1.050;2023-04-02T12:30:19;99859.16;;;24.57;40.19
18569;BME280;14780;48.316;-1.050;2023-04-02T12:33:38;99860.84;;;24.63;40.13
18569;BME280;14780;48.316;-1.050;2023-04-02T12:36:23;99854.25;;;24.59;39.97
18569;BME280;14780;48.316;-1.050;2023-04-02T12:39:15;99859.78;;;24.64;39.97
18569;BME280;14780;48.316;-1.050;2023-04-02T12:42:01;99868.00;;;24.64;39.97
18569;BME280;14780;48.316;-1.050;2023-04-02T12:44:48;99868.31;;;24.68;39.93
18569;BME280;14780;48.316;-1.050;2023-04-02T12:47:33;99881.41;;;24.66;39.95
18569;BME280;14780;48.316;-1.050;2023-04-02T12:50:19;99874.03;;;24.66;39.85
18569;BME280;14780;48.316;-1.050;2023-04-02T12:53:17;99877.88;;;24.70;39.88
18569;BME280;14780;48.316;-1.050;2023-04-02T12:56:05;99876.22;;;24.64;39.83
18569;BME280;14780;48.316;-1.050;2023-04-02T12:59:00;99881.16;;;24.67;39.82
18569;BME280;14780;48.316;-1.050;2023-04-02T13:01:56;99877.31;;;24.68;39.70
18569;BME280;14780;48.316;-1.050;2023-04-02T13:04:56;99887.19;;;24.69;39.70
18569;BME280;14780;48.316;-1.050;2023-04-02T13:07:46;99891.00;;;24.68;39.78
18569;BME280;14780;48.316;-1.050;2023-04-02T13:10:32;99886.38;;;24.69;39.70
18569;BME280;14780;48.316;-1.050;2023-04-02T13:13:22;99897.63;;;24.72;39.70
18569;BME280;14780;48.316;-1.050;2023-04-02T13:19:50;99899.78;;;24.70;39.71
18569;BME280;14780;48.316;-1.050;2023-04-02T13:22:31;99895.09;;;24.66;39.67
18569;BME280;14780;48.316;-1.050;2023-04-02T13:25:15;99893.69;;;24.63;39.62
18569;BME280;14780;48.316;-1.050;2023-04-02T13:28:01;99902.97;;;24.62;39.57
18569;BME280;14780;48.316;-1.050;2023-04-02T13:30:46;99901.66;;;24.65;39.58
18569;BME280;14780;48.316;-1.050;2023-04-02T13:33:30;99902.97;;;24.62;39.67
18569;BME280;14780;48.316;-1.050;2023-04-02T13:36:16;99908.47;;;24.62;39.65
18569;BME280;14780;48.316;-1.050;2023-04-02T13:39:00;99921.06;;;24.63;39.50
18569;BME280;14780;48.316;-1.050;2023-04-02T13:41:56;99913.44;;;24.65;39.50
18569;BME280;14780;48.316;-1.050;2023-04-02T13:44:42;99910.69;;;24.65;39.48
18569;BME280;14780;48.316;-1.050;2023-04-02T13:47:27;99911.78;;;24.64;39.42
18569;BME280;14780;48.316;-1.050;2023-04-02T13:50:19;99915.88;;;24.67;39.54
18569;BME280;14780;48.316;-1.050;2023-04-02T13:53:07;99910.69;;;24.65;39.38
18569;BME280;14780;48.316;-1.050;2023-04-02T13:55:52;99908.50;;;24.67;39.53
18569;BME280;14780;48.316;-1.050;2023-04-02T13:58:37;99913.44;;;24.65;39.54
18569;BME280;14780;48.316;-1.050;2023-04-02T14:01:22;99907.66;;;24.62;39.42
18569;BME280;14780;48.316;-1.050;2023-04-02T14:04:10;99912.28;;;24.61;39.54
18569;BME280;14780;48.316;-1.050;2023-04-02T14:16:58;99912.28;;;24.61;39.28
18569;BME280;14780;48.316;-1.050;2023-04-02T14:25:56;99924.84;;;24.57;39.30
18569;BME280;14780;48.316;-1.050;2023-04-02T14:41:09;99912.94;;;24.52;39.38
18569;BME280;14780;48.316;-1.050;2023-04-02T14:44:04;99911.31;;;24.51;39.54
18569;BME280;14780;48.316;-1.050;2023-04-02T14:46:58;99905.53;;;24.47;39.44
18569;BME280;14780;48.316;-1.050;2023-04-02T14:49:45;99900.88;;;24.48;39.27
18569;BME280;14780;48.316;-1.050;2023-04-02T14:52:34;99913.47;;;24.49;39.41
18569;BME280;14780;48.316;-1.050;2023-04-02T14:55:29;99931.78;;;24.48;39.41
18569;BME280;14780;48.316;-1.050;2023-04-02T14:58:32;99927.69;;;24.46;39.28
18569;BME280;14780;48.316;-1.050;2023-04-02T15:01:36;99925.75;;;24.46;39.25
18569;BME280;14780;48.316;-1.050;2023-04-02T15:04:40;99921.63;;;24.44;39.35
18569;BME280;14780;48.316;-1.050;2023-04-02T15:07:40;99929.03;;;24.43;39.40
18569;BME280;14780;48.316;-1.050;2023-04-02T15:10:35;99934.19;;;24.40;39.53
18569;BME280;14780;48.316;-1.050;2023-04-02T15:16:37;99931.13;;;24.36;39.83
18569;BME280;14780;48.316;-1.050;2023-04-02T15:19:22;99936.69;;;24.46;39.83
18569;BME280;14780;48.316;-1.050;2023-04-02T15:25:52;99934.16;;;24.61;39.88
18569;BME280;14780;48.316;-1.050;2023-04-02T15:32:23;99926.22;;;24.60;39.83
18569;BME280;14780;48.316;-1.050;2023-04-02T15:38:20;99935.69;;;24.52;40.63
18569;BME280;14780;48.316;-1.050;2023-04-02T15:41:26;99941.16;;;24.52;40.61
18569;BME280;14780;48.316;-1.050;2023-04-02T15:44:16;99938.97;;;24.54;40.63
18569;BME280;14780;48.316;-1.050;2023-04-02T15:47:19;99940.97;;;24.59;40.65
18569;BME280;14780;48.316;-1.050;2023-04-02T15:50:33;99947.78;;;24.56;40.80
18569;BME280;14780;48.316;-1.050;2023-04-02T15:59:39;99945.47;;;24.48;41.10
18569;BME280;14780;48.316;-1.050;2023-04-02T16:08:30;99950.94;;;24.48;40.79
18569;BME280;14780;48.316;-1.050;2023-04-02T16:11:19;99955.84;;;24.46;40.65
18569;BME280;14780;48.316;-1.050;2023-04-02T16:14:30;99948.97;;;24.44;40.67
18569;BME280;14780;48.316;-1.050;2023-04-02T16:17:29;99957.47;;;24.42;40.67
18569;BME280;14780;48.316;-1.050;2023-04-02T16:20:17;99956.31;;;24.38;40.78
18569;BME280;14780;48.316;-1.050;2023-04-02T16:23:14;99964.59;;;24.43;40.64
18569;BME280;14780;48.316;-1.050;2023-04-02T16:41:18;99980.09;;;24.38;40.67
18569;BME280;14780;48.316;-1.050;2023-04-02T16:54:10;99980.53;;;24.30;40.79
18569;BME280;14780;48.316;-1.050;2023-04-02T17:06:07;99993.97;;;24.31;40.79
18569;BME280;14780;48.316;-1.050;2023-04-02T17:12:03;99994.47;;;24.28;41.17
18569;BME280;14780;48.316;-1.050;2023-04-02T17:15:02;99997.78;;;24.30;41.23
18569;BME280;14780;48.316;-1.050;2023-04-02T17:17:48;100013.66;;;24.33;41.14
18569;BME280;14780;48.316;-1.050;2023-04-02T17:20:33;100009.84;;;24.34;41.11
18569;BME280;14780;48.316;-1.050;2023-04-02T17:23:19;100005.75;;;24.32;41.12
18569;BME280;14780;48.316;-1.050;2023-04-02T17:26:06;100004.34;;;24.29;41.21
18569;BME280;14780;48.316;-1.050;2023-04-02T17:28:52;100014.69;;;24.27;41.23
18569;BME280;14780;48.316;-1.050;2023-04-02T17:31:38;100025.84;;;24.42;40.82
18569;BME280;14780;48.316;-1.050;2023-04-02T17:34:25;100023.94;;;24.43;40.83
18569;BME280;14780;48.316;-1.050;2023-04-02T17:40:27;100023.94;;;24.43;40.81
18569;BME280;14780;48.316;-1.050;2023-04-02T17:46:38;100027.22;;;24.23;41.10
18569;BME280;14780;48.316;-1.050;2023-04-02T17:52:58;100035.63;;;24.17;41.06
18569;BME280;14780;48.316;-1.050;2023-04-02T17:56:26;100033.44;;;24.19;41.08
18569;BME280;14780;48.316;-1.050;2023-04-02T18:11:30;100026.38;;;24.23;40.88
18569;BME280;14780;48.316;-1.050;2023-04-02T18:20:42;100048.00;;;24.24;41.07
18569;BME280;14780;48.316;-1.050;2023-04-02T18:24:10;100054.00;;;24.21;41.04
18569;BME280;14780;48.316;-1.050;2023-04-02T18:30:28;100049.00;;;24.18;40.27
18569;BME280;14780;48.316;-1.050;2023-04-02T18:52:46;100085.31;;;23.97;40.69
18569;BME280;14780;48.316;-1.050;2023-04-02T18:55:32;100081.50;;;23.98;40.68
18569;BME280;14780;48.316;-1.050;2023-04-02T19:01:29;100100.25;;;24.06;40.70
18569;BME280;14780;48.316;-1.050;2023-04-02T19:04:24;100096.50;;;24.12;40.79
18569;BME280;14780;48.316;-1.050;2023-04-02T19:07:13;100104.13;;;24.10;40.79
18569;BME280;14780;48.316;-1.050;2023-04-02T19:10:06;100105.78;;;24.11;40.91
18569;BME280;14780;48.316;-1.050;2023-04-02T19:12:52;100107.38;;;24.07;41.02
18569;BME280;14780;48.316;-1.050;2023-04-02T19:15:51;100110.78;;;24.14;40.91
18569;BME280;14780;48.316;-1.050;2023-04-02T19:22:12;100116.81;;;24.16;40.96
18569;BME280;14780;48.316;-1.050;2023-04-02T19:37:15;100109.69;;;24.15;41.14
18569;BME280;14780;48.316;-1.050;2023-04-02T19:43:09;100126.00;;;24.10;41.21
18569;BME280;14780;48.316;-1.050;2023-04-02T19:45:54;100129.31;;;24.12;41.32
18569;BME280;14780;48.316;-1.050;2023-04-02T19:51:36;100134.88;;;24.17;41.17
18569;BME280;14780;48.316;-1.050;2023-04-02T19:54:21;100136.28;;;24.20;41.27
18569;BME280;14780;48.316;-1.050;2023-04-02T19:57:06;100136.53;;;24.18;41.19
18569;BME280;14780;48.316;-1.050;2023-04-02T19:59:51;100143.66;;;24.19;41.33
18569;BME280;14780;48.316;-1.050;2023-04-02T20:02:36;100142.84;;;24.19;41.32
18569;BME280;14780;48.316;-1.050;2023-04-02T20:05:21;100142.84;;;24.19;41.33
18569;BME280;14780;48.316;-1.050;2023-04-02T20:08:05;100142.00;;;24.18;41.36
18569;BME280;14780;48.316;-1.050;2023-04-02T20:10:50;100136.53;;;24.18;41.30
18569;BME280;14780;48.316;-1.050;2023-04-02T20:13:34;100137.13;;;24.20;41.36